Raymond, Georgia
Current Conditions -  °F | °C
As of 9:15 AM on Thursday 29 Jan 2015 (Local Time) from KCCO Reporting Station
Clear Clear  
Wind Chill: 41°   Ceiling: Unl
Heat Index: 41°   Visibility: 10mi
Dew Point: 34°   Wind: 0mph
Humidity: 74%   Direction: NA
Pressure: 30.31"   Gusts: NA
Location:  33.3877°N, 84.8596°W
Report Text: KCCO 291415Z AUTO 00000KT 10SM CLR 05/01 A3031 RMK AO2 T00510009
Loading
Personal Weather Stations






























Interactive Weather Map New forecast layout! Learn more

10-Day Weather Forecast

Advertisements
Track Severe Weather on mobile